Time;durP1;ratioP1;P1;durP2;ratioP2;P2;SDS_P1;SDS_P2;PMS_P1;PMS_P2;Temp;Humidity;BMP_temperature;BMP_pressure;BME280_temperature;BME280_humidity;BME280_pressure;Samples;Min_cycle;Max_cycle;Signal;HPM_P1;HPM_P2
2021/12/01 00:01:51;;;;;;;7.25;3.00;;;;;;;4.73;61.80;99160.09;5063062;28;20051;-82
2021/12/01 00:04:16;;;;;;;4.97;2.80;;;;;;;4.68;61.88;99156.63;5068889;28;20522;-82
2021/12/01 00:06:42;;;;;;;6.25;3.08;;;;;;;4.64;62.43;99161.41;5063689;28;20486;-82
2021/12/01 00:09:07;;;;;;;4.07;2.45;;;;;;;4.61;62.08;99169.72;5060364;28;20055;-82
2021/12/01 00:11:33;;;;;;;5.10;3.10;;;;;;;4.58;62.24;99170.53;5064688;28;20044;-82
2021/12/01 00:13:58;;;;;;;6.50;3.08;;;;;;;4.58;62.05;99160.31;5045757;28;20041;-82
2021/12/01 00:16:24;;;;;;;4.40;2.83;;;;;;;4.57;62.22;99158.75;5066607;28;20072;-82
2021/12/01 00:18:50;;;;;;;5.70;2.80;;;;;;;4.59;61.88;99167.38;5046708;28;20482;-82
2021/12/01 00:21:18;;;;;;;4.78;3.13;;;;;;;4.60;61.88;99163.44;5045515;28;20124;-82
2021/12/01 00:23:43;;;;;;;5.07;2.67;;;;;;;4.61;61.98;99150.50;5047750;28;20128;-82
2021/12/01 00:26:09;;;;;;;5.40;2.90;;;;;;;4.60;62.02;99157.16;5065637;28;20040;-82
2021/12/01 00:28:36;;;;;;;5.50;2.92;;;;;;;4.58;62.25;99168.56;5061791;28;20049;-82
2021/12/01 00:31:02;;;;;;;5.78;2.97;;;;;;;4.58;62.37;99173.28;5065170;28;20083;-82
2021/12/01 00:33:28;;;;;;;3.75;2.60;;;;;;;4.56;62.33;99173.72;5061628;28;20041;-82
2021/12/01 00:35:56;;;;;;;4.68;2.90;;;;;;;4.56;62.36;99176.47;5043321;28;20459;-85
2021/12/01 00:38:23;;;;;;;4.63;2.95;;;;;;;4.52;62.24;99178.47;5061609;28;20338;-85
2021/12/01 00:40:49;;;;;;;4.88;3.10;;;;;;;4.63;61.94;99194.78;5057476;28;20056;-85
2021/12/01 00:43:18;;;;;;;5.18;3.10;;;;;;;4.53;62.29;99180.00;5050309;28;20417;-85
2021/12/01 00:46:00;;;;;;;5.13;2.70;;;;;;;4.52;62.70;99178.47;5046729;28;20122;-85
2021/12/01 00:48:26;;;;;;;5.40;2.97;;;;;;;4.53;62.52;99185.50;5040294;28;20029;-85
2021/12/01 00:50:54;;;;;;;5.32;2.85;;;;;;;4.46;62.75;99174.66;5064962;28;20033;-85
2021/12/01 00:53:19;;;;;;;6.43;2.80;;;;;;;4.50;63.25;99185.56;5065914;28;20024;-83
2021/12/01 00:55:45;;;;;;;4.45;2.80;;;;;;;4.50;63.15;99189.09;5068579;28;20071;-82
2021/12/01 00:58:12;;;;;;;5.68;2.67;;;;;;;4.48;63.31;99187.97;5065927;28;20032;-82
2021/12/01 01:00:38;;;;;;;4.47;2.90;;;;;;;4.47;62.94;99187.19;5062853;28;20166;-82
2021/12/01 01:03:04;;;;;;;5.05;3.10;;;;;;;4.50;63.15;99175.38;5065647;28;20036;-82
2021/12/01 01:05:29;;;;;;;5.05;3.00;;;;;;;4.49;63.27;99179.28;5041703;28;20044;-82
2021/12/01 01:07:55;;;;;;;5.80;3.20;;;;;;;4.47;63.60;99189.94;5065171;28;20040;-82
2021/12/01 01:18:20;;;;;;;5.15;2.80;;;;;;;4.37;63.74;99171.63;5057686;28;20487;-82
2021/12/01 01:20:46;;;;;;;5.95;3.10;;;;;;;4.35;63.94;99174.03;5065841;28;20044;-82
2021/12/01 01:23:11;;;;;;;5.15;3.10;;;;;;;4.38;64.21;99172.41;5067201;28;20048;-82
2021/12/01 01:25:37;;;;;;;5.07;3.08;;;;;;;4.36;63.96;99164.63;5067048;28;20053;-82
2021/12/01 01:28:03;;;;;;;6.05;3.00;;;;;;;4.26;64.43;99154.56;5067386;28;20036;-82
2021/12/01 01:30:29;;;;;;;5.18;3.10;;;;;;;4.34;64.73;99177.97;5061282;28;20032;-82
2021/12/01 01:32:55;;;;;;;5.45;3.00;;;;;;;4.32;64.73;99174.88;5065202;28;20044;-82
2021/12/01 01:35:21;;;;;;;6.13;3.20;;;;;;;4.34;64.92;99174.44;5050527;28;20033;-82
2021/12/01 01:37:47;;;;;;;6.75;3.10;;;;;;;4.30;65.04;99179.22;5030090;28;20498;-82
2021/12/01 01:40:12;;;;;;;5.30;3.05;;;;;;;4.27;65.09;99183.56;5062864;28;21591;-82
2021/12/01 01:42:38;;;;;;;5.93;3.15;;;;;;;4.28;65.13;99174.16;5053082;28;20048;-82
2021/12/01 01:45:05;;;;;;;5.88;3.05;;;;;;;4.31;64.84;99167.81;5047557;28;20047;-82
2021/12/01 01:47:30;;;;;;;6.13;3.30;;;;;;;4.30;65.03;99163.53;5071558;28;20037;-82
2021/12/01 01:50:41;;;;;;;5.07;2.88;;;;;;;4.33;64.71;99170.16;5067241;28;20522;-82
2021/12/01 01:52:41;;;;;;;6.18;3.17;;;;;;;4.34;64.92;99168.97;5060359;28;20064;-82
2021/12/01 01:55:07;;;;;;;5.60;2.97;;;;;;;4.35;65.07;99174.03;5073374;28;20486;-82
2021/12/01 01:57:35;;;;;;;5.13;3.00;;;;;;;4.28;65.39;99160.44;5068661;28;20139;-82
2021/12/01 02:00:00;;;;;;;6.22;3.70;;;;;;;4.29;65.23;99164.72;5068265;28;20417;-82
2021/12/01 02:02:26;;;;;;;5.28;2.97;;;;;;;4.25;65.47;99168.72;5045927;28;20040;-82
2021/12/01 02:04:51;;;;;;;5.57;3.20;;;;;;;4.28;65.63;99184.34;5068196;28;20068;-82
2021/12/01 02:07:17;;;;;;;6.18;3.03;;;;;;;4.26;65.94;99181.25;5065736;28;20040;-82
2021/12/01 02:09:43;;;;;;;5.45;3.28;;;;;;;4.21;65.95;99182.47;5061482;28;20052;-82
2021/12/01 02:12:09;;;;;;;5.65;3.10;;;;;;;4.13;65.97;99179.06;5071980;28;20109;-82
2021/12/01 02:14:34;;;;;;;5.68;3.00;;;;;;;4.19;66.31;99182.91;5072156;28;20028;-85
2021/12/01 02:17:00;;;;;;;6.35;2.88;;;;;;;4.17;66.07;99177.03;5051546;28;20052;-84
2021/12/01 02:19:26;;;;;;;6.35;2.92;;;;;;;4.14;66.44;99185.34;5069879;28;20508;-85
2021/12/01 02:21:51;;;;;;;6.18;3.08;;;;;;;4.12;66.50;99176.75;5053494;28;20040;-85
2021/12/01 02:24:20;;;;;;;5.47;3.00;;;;;;;4.11;66.27;99186.94;5075787;28;20036;-85
2021/12/01 02:26:49;;;;;;;6.80;3.35;;;;;;;4.02;66.78;99180.41;5052158;28;20052;-84
2021/12/01 02:29:22;;;;;;;4.97;2.90;;;;;;;4.04;66.85;99191.75;5047590;28;20413;-82
2021/12/01 02:31:48;;;;;;;6.57;3.17;;;;;;;3.97;66.85;99191.84;5069436;28;20390;-84
2021/12/01 02:34:20;;;;;;;6.45;3.10;;;;;;;3.91;67.42;99199.00;5053377;28;20032;-84
2021/12/01 02:36:49;;;;;;;4.88;3.28;;;;;;;3.88;67.34;99200.59;5048469;28;20548;-85
2021/12/01 02:39:16;;;;;;;5.72;3.28;;;;;;;3.82;67.79;99195.97;5069520;28;20080;-85
2021/12/01 02:41:42;;;;;;;4.82;3.10;;;;;;;3.71;68.01;99198.84;5050091;28;20490;-84
2021/12/01 02:44:10;;;;;;;5.97;3.10;;;;;;;3.65;68.64;99201.28;5066874;28;20036;-84
2021/12/01 02:46:37;;;;;;;5.72;3.33;;;;;;;3.45;69.84;99205.81;5046909;28;20049;-85
2021/12/01 02:49:03;;;;;;;6.03;3.42;;;;;;;3.34;70.09;99210.66;5052287;28;20460;-85
2021/12/01 02:51:32;;;;;;;4.75;3.30;;;;;;;3.22;70.11;99206.47;5049480;28;20064;-82
2021/12/01 02:53:58;;;;;;;6.13;3.13;;;;;;;3.24;70.61;99222.50;5069492;28;20044;-82
2021/12/01 02:56:30;;;;;;;5.68;3.30;;;;;;;3.14;70.66;99229.66;5064259;28;20519;-82
2021/12/01 02:58:57;;;;;;;5.20;2.75;;;;;;;3.09;70.86;99221.09;5064226;28;20387;-82
2021/12/01 03:01:23;;;;;;;6.57;3.17;;;;;;;3.04;71.41;99210.56;5049589;28;20037;-82
2021/12/01 03:03:51;;;;;;;4.65;3.05;;;;;;;2.99;71.79;99214.53;5048676;28;20041;-82
2021/12/01 03:06:20;;;;;;;5.70;3.22;;;;;;;3.04;71.88;99221.50;5066910;28;20425;-82
2021/12/01 03:08:46;;;;;;;6.60;3.50;;;;;;;3.08;71.47;99230.47;5048191;28;20119;-82
2021/12/01 03:11:15;;;;;;;4.78;2.70;;;;;;;3.05;71.87;99217.59;5059321;28;20124;-82
2021/12/01 03:13:41;;;;;;;5.60;3.30;;;;;;;3.20;71.45;99221.75;5050664;28;20539;-82
2021/12/01 03:16:07;;;;;;;4.10;2.67;;;;;;;3.21;72.13;99218.59;5050827;28;20074;-82
2021/12/01 03:18:33;;;;;;;5.88;2.90;;;;;;;3.21;72.05;99220.56;5071498;28;20068;-82
2021/12/01 03:20:59;;;;;;;5.57;3.03;;;;;;;3.27;71.62;99221.69;5052748;28;20127;-82
2021/12/01 03:23:25;;;;;;;7.22;2.70;;;;;;;3.30;71.88;99229.09;5065181;28;20098;-82
2021/12/01 03:25:51;;;;;;;6.35;3.15;;;;;;;3.28;71.93;99206.78;5069802;28;20139;-82
2021/12/01 03:28:17;;;;;;;4.80;2.70;;;;;;;3.48;71.32;99217.94;5052428;28;20159;-82
2021/12/01 03:30:44;;;;;;;5.30;2.90;;;;;;;3.52;71.64;99215.94;5026695;28;20459;-82
2021/12/01 03:33:12;;;;;;;5.47;2.90;;;;;;;3.52;71.49;99227.66;5051147;28;20037;-82
2021/12/01 03:35:40;;;;;;;5.68;2.90;;;;;;;3.59;71.62;99243.28;5048753;28;20048;-82
2021/12/01 03:38:06;;;;;;;5.68;3.33;;;;;;;3.65;70.93;99236.91;5069723;28;20049;-82
2021/12/01 03:40:32;;;;;;;4.45;2.97;;;;;;;3.65;71.59;99239.66;5071035;28;20049;-82
2021/12/01 03:42:57;;;;;;;4.68;2.70;;;;;;;3.62;71.93;99231.47;5070072;28;20040;-82
2021/12/01 03:45:23;;;;;;;7.80;3.15;;;;;;;3.65;71.63;99247.88;5069756;28;20055;-82
2021/12/01 03:47:49;;;;;;;6.18;3.30;;;;;;;3.64;70.81;99227.13;5070393;28;20036;-82
2021/12/01 03:50:15;;;;;;;6.88;3.10;;;;;;;3.68;71.15;99227.88;5049790;28;20051;-82
2021/12/01 03:52:41;;;;;;;6.13;3.15;;;;;;;3.66;71.14;99227.50;5067462;28;20036;-82
2021/12/01 03:55:09;;;;;;;5.47;3.13;;;;;;;3.59;71.23;99233.09;5065535;28;20045;-82
2021/12/01 03:57:35;;;;;;;5.88;3.17;;;;;;;3.59;71.37;99226.81;5051714;28;20461;-82
2021/12/01 04:00:03;;;;;;;4.35;2.60;;;;;;;3.49;72.05;99209.28;5060413;28;20124;-82
2021/12/01 04:02:38;;;;;;;6.63;3.28;;;;;;;3.56;71.56;99200.97;5050287;28;20044;-82
2021/12/01 04:05:04;;;;;;;5.57;3.13;;;;;;;3.56;71.72;99203.72;5043831;28;20083;-82
2021/12/01 04:07:31;;;;;;;5.65;2.65;;;;;;;3.66;70.65;99222.03;5063233;28;20037;-82
2021/12/01 04:09:57;;;;;;;7.72;3.17;;;;;;;3.72;70.63;99220.38;5065079;28;20524;-82
2021/12/01 04:12:23;;;;;;;6.15;3.17;;;;;;;3.80;71.37;99223.06;5068323;28;20033;-82
2021/12/01 04:14:48;;;;;;;5.25;2.80;;;;;;;3.86;70.97;99215.91;5070124;28;20059;-82
2021/12/01 04:17:14;;;;;;;5.50;2.90;;;;;;;3.85;71.09;99211.59;5064182;28;20059;-82
2021/12/01 04:19:39;;;;;;;4.13;2.72;;;;;;;3.86;71.10;99218.66;5070279;28;20037;-82
2021/12/01 04:22:05;;;;;;;5.20;3.00;;;;;;;3.95;71.32;99214.22;5068821;28;20045;-82
2021/12/01 04:24:31;;;;;;;5.10;2.95;;;;;;;3.95;71.49;99211.47;5054624;28;20072;-82
2021/12/01 04:26:57;;;;;;;4.85;2.80;;;;;;;3.92;71.61;99223.28;5075462;28;20485;-85
2021/12/01 04:29:23;;;;;;;6.30;2.95;;;;;;;3.86;71.53;99213.16;5070141;28;20149;-85
2021/12/01 04:31:50;;;;;;;6.93;2.80;;;;;;;3.88;70.84;99216.28;5065150;28;20040;-85
2021/12/01 04:34:16;;;;;;;5.63;2.92;;;;;;;3.89;71.17;99212.31;5047259;28;20689;-85
2021/12/01 04:36:43;;;;;;;4.93;3.00;;;;;;;3.91;71.79;99215.44;5064861;28;20052;-85
2021/12/01 04:39:13;;;;;;;5.88;3.10;;;;;;;3.97;71.66;99227.50;5061278;28;20047;-85
2021/12/01 04:41:42;;;;;;;5.28;3.08;;;;;;;3.92;71.95;99215.06;5062585;28;20037;-85
2021/12/01 04:44:11;;;;;;;5.43;2.85;;;;;;;3.89;71.72;99204.88;5066470;28;20032;-84
2021/12/01 04:46:45;;;;;;;4.40;2.58;;;;;;;3.95;72.17;99221.66;5065393;28;20045;-82
2021/12/01 04:49:14;;;;;;;6.35;3.10;;;;;;;3.95;72.58;99229.91;5062170;28;20051;-82
2021/12/01 04:51:41;;;;;;;7.78;2.85;;;;;;;3.93;72.47;99224.81;5066767;28;20044;-82
2021/12/01 04:54:07;;;;;;;6.10;2.67;;;;;;;3.97;73.25;99224.75;5054332;28;20032;-83
2021/12/01 04:56:33;;;;;;;5.70;2.70;;;;;;;4.00;74.33;99229.44;5057149;28;20045;-82
2021/12/01 04:58:58;;;;;;;5.07;2.90;;;;;;;4.02;74.53;99230.59;5065808;28;20048;-82
2021/12/01 05:01:24;;;;;;;4.43;2.67;;;;;;;4.10;74.79;99236.75;5064008;28;20040;-82
2021/12/01 05:03:49;;;;;;;6.07;2.65;;;;;;;4.13;75.11;99244.16;5061913;28;20036;-83
2021/12/01 05:06:16;;;;;;;5.00;3.00;;;;;;;4.17;74.96;99244.88;5030868;28;20053;-84
2021/12/01 05:08:42;;;;;;;8.05;2.92;;;;;;;4.26;74.63;99250.66;5067539;28;20032;-84
2021/12/01 05:11:08;;;;;;;5.65;2.70;;;;;;;4.31;72.58;99244.69;5061400;28;20186;-85
2021/12/01 05:13:33;;;;;;;5.63;2.72;;;;;;;4.33;72.60;99250.53;5067628;28;20047;-85
2021/12/01 05:15:59;;;;;;;6.15;3.28;;;;;;;4.39;72.07;99240.66;5067370;28;20029;-85
2021/12/01 05:18:24;;;;;;;5.63;2.85;;;;;;;4.42;72.53;99261.78;5068703;28;20563;-86
2021/12/01 05:20:50;;;;;;;7.25;2.90;;;;;;;4.41;72.00;99246.50;5065641;28;20041;-83
2021/12/01 05:23:15;;;;;;;5.15;2.90;;;;;;;4.37;72.03;99265.00;5067383;28;20115;-85
2021/12/01 05:25:42;;;;;;;8.00;3.00;;;;;;;4.27;72.51;99238.47;5051367;28;20071;-85
2021/12/01 05:28:08;;;;;;;6.95;4.07;;;;;;;4.21;72.55;99240.13;5068508;28;20040;-85
2021/12/01 05:30:33;;;;;;;6.00;3.53;;;;;;;4.16;72.42;99255.13;5067729;28;20039;-85
2021/12/01 05:33:05;;;;;;;5.45;3.13;;;;;;;4.09;72.50;99248.91;5053448;28;20543;-84
2021/12/01 05:35:30;;;;;;;6.10;3.28;;;;;;;4.02;73.30;99257.25;5062778;28;20517;-86
2021/12/01 05:37:57;;;;;;;5.72;3.40;;;;;;;4.03;73.78;99264.28;5030469;28;20049;-85
2021/12/01 05:40:22;;;;;;;8.75;3.72;;;;;;;3.95;74.26;99238.13;5066736;28;20044;-86
2021/12/01 05:42:48;;;;;;;9.02;3.45;;;;;;;3.93;74.47;99249.50;5072484;28;20510;-86
2021/12/01 05:45:14;;;;;;;9.60;3.67;;;;;;;3.95;74.54;99260.09;5046655;28;20090;-86
2021/12/01 05:47:39;;;;;;;6.85;3.22;;;;;;;3.96;75.66;99273.41;5068354;28;20107;-86
2021/12/01 05:50:05;;;;;;;6.90;3.65;;;;;;;4.03;75.42;99272.53;5066182;28;20111;-86
2021/12/01 05:52:30;;;;;;;10.73;4.03;;;;;;;3.98;75.78;99253.78;5062579;28;20834;-86
2021/12/01 05:54:56;;;;;;;10.10;3.80;;;;;;;4.03;76.44;99256.84;5071383;28;20041;-85
2021/12/01 05:57:22;;;;;;;5.72;3.78;;;;;;;4.03;75.20;99251.34;5077903;28;20052;-92
2021/12/01 05:59:47;;;;;;;7.70;3.88;;;;;;;4.08;75.37;99252.88;5037037;28;20044;-91
2021/12/01 06:02:13;;;;;;;6.75;3.83;;;;;;;4.17;75.55;99255.84;5045480;28;20041;-92
2021/12/01 06:04:38;;;;;;;10.93;3.80;;;;;;;4.13;76.07;99233.19;5050761;28;20060;-92
2021/12/01 06:07:04;;;;;;;7.32;4.40;;;;;;;4.10;75.47;99239.50;5054978;28;20049;-93
2021/12/01 06:09:30;;;;;;;7.25;3.95;;;;;;;4.19;75.91;99253.50;5053785;28;20084;-93
2021/12/01 06:11:56;;;;;;;7.75;4.00;;;;;;;4.08;75.04;99236.41;5059641;28;20083;-92
2021/12/01 06:14:21;;;;;;;7.07;3.70;;;;;;;4.21;75.34;99251.09;5075609;28;20500;-91
2021/12/01 06:16:47;;;;;;;8.23;4.10;;;;;;;4.22;75.34;99264.44;5078444;28;20072;-92
2021/12/01 06:19:13;;;;;;;6.90;4.45;;;;;;;4.27;75.26;99270.66;5045215;28;20037;-92
2021/12/01 06:21:38;;;;;;;7.95;4.10;;;;;;;4.27;75.61;99260.44;5042549;28;20505;-91
2021/12/01 06:24:04;;;;;;;10.15;4.50;;;;;;;4.25;75.54;99262.06;5038415;28;20493;-92
2021/12/01 06:26:30;;;;;;;7.78;4.70;;;;;;;4.27;76.52;99249.47;5049558;28;20396;-92
2021/12/01 06:28:55;;;;;;;8.32;4.97;;;;;;;4.21;77.45;99265.59;5072315;28;20537;-92
2021/12/01 06:31:21;;;;;;;9.88;4.93;;;;;;;4.17;77.15;99250.38;5052371;28;20051;-92
2021/12/01 06:33:47;;;;;;;9.68;4.55;;;;;;;4.22;77.36;99244.44;5039174;28;20049;-91
2021/12/01 06:36:12;;;;;;;13.88;5.78;;;;;;;4.31;77.56;99252.16;5059660;28;20317;-92
2021/12/01 06:38:41;;;;;;;13.32;5.63;;;;;;;4.35;77.30;99248.16;5049489;28;20044;-92
2021/12/01 06:41:08;;;;;;;8.32;4.47;;;;;;;4.40;77.83;99263.41;5045026;28;20502;-84
2021/12/01 06:43:33;;;;;;;11.50;4.22;;;;;;;4.36;77.73;99270.91;5068784;28;20032;-85
2021/12/01 06:45:59;;;;;;;10.77;5.38;;;;;;;4.34;77.58;99276.03;5036846;28;20036;-85
2021/12/01 06:48:24;;;;;;;10.07;5.18;;;;;;;4.25;76.61;99260.06;5070275;28;20020;-84
2021/12/01 06:50:50;;;;;;;12.02;5.80;;;;;;;4.36;76.52;99279.94;5053075;28;20032;-85
2021/12/01 06:53:16;;;;;;;13.23;6.72;;;;;;;4.27;75.95;99279.66;5065511;28;20040;-85
2021/12/01 06:55:41;;;;;;;15.70;9.57;;;;;;;4.27;75.38;99274.16;5061524;28;20033;-85
2021/12/01 06:58:07;;;;;;;19.23;11.30;;;;;;;4.33;75.89;99291.72;5047721;28;20041;-84
2021/12/01 07:00:33;;;;;;;17.60;10.85;;;;;;;4.35;75.09;99288.56;5070614;28;20463;-84
2021/12/01 07:02:58;;;;;;;18.27;10.52;;;;;;;4.36;75.63;99282.69;5035145;28;20048;-85
2021/12/01 07:05:24;;;;;;;18.70;10.48;;;;;;;4.40;75.36;99279.88;5052853;28;20394;-85
2021/12/01 07:07:49;;;;;;;16.95;9.75;;;;;;;4.49;75.50;99283.66;5071216;28;20036;-84
2021/12/01 07:10:15;;;;;;;15.93;9.10;;;;;;;4.62;75.12;99289.34;5071666;28;20486;-85
2021/12/01 07:12:41;;;;;;;17.98;8.82;;;;;;;4.68;74.56;99287.72;5046030;28;20510;-85
2021/12/01 07:15:07;;;;;;;15.93;9.65;;;;;;;4.73;74.23;99283.72;5032013;28;20116;-85
2021/12/01 07:17:33;;;;;;;15.98;10.00;;;;;;;4.77;74.57;99287.97;5051582;28;20041;-84
2021/12/01 07:19:59;;;;;;;27.42;15.05;;;;;;;4.73;74.78;99276.25;5071498;28;20517;-91
2021/12/01 07:22:24;;;;;;;49.33;31.70;;;;;;;4.77;74.83;99278.94;5071763;28;20040;-92
2021/12/01 07:24:50;;;;;;;30.30;20.50;;;;;;;4.78;74.61;99270.28;5045892;28;20414;-91
2021/12/01 07:27:16;;;;;;;24.85;15.27;;;;;;;4.94;73.57;99286.13;5063380;28;20452;-92
2021/12/01 07:29:42;;;;;;;18.95;11.15;;;;;;;4.89;72.52;99259.13;5069740;28;20124;-91
2021/12/01 07:32:09;;;;;;;17.95;11.23;;;;;;;5.00;72.87;99276.22;5048210;28;20119;-92
2021/12/01 07:34:43;;;;;;;14.00;9.38;;;;;;;4.98;73.04;99267.59;5044026;28;20036;-85
2021/12/01 07:37:14;;;;;;;12.52;8.27;;;;;;;4.98;72.65;99270.34;5071623;28;20056;-91
2021/12/01 07:39:40;;;;;;;15.43;9.00;;;;;;;5.04;72.79;99279.69;5065954;28;20116;-91
2021/12/01 07:42:06;;;;;;;19.15;9.63;;;;;;;5.01;71.94;99267.56;5059808;28;20128;-92
2021/12/01 07:44:32;;;;;;;15.63;9.30;;;;;;;5.08;72.13;99281.19;5024840;28;20033;-92
2021/12/01 07:46:57;;;;;;;15.85;8.15;;;;;;;5.08;71.83;99281.19;5053748;28;20118;-92
2021/12/01 07:49:23;;;;;;;15.63;9.10;;;;;;;5.13;72.29;99288.97;5067365;28;20107;-93
2021/12/01 07:51:49;;;;;;;16.80;9.77;;;;;;;5.14;72.59;99278.72;5070768;28;20131;-92
2021/12/01 07:54:15;;;;;;;15.57;8.70;;;;;;;5.23;72.29;99275.44;5071058;28;20035;-92
2021/12/01 07:56:41;;;;;;;14.23;8.35;;;;;;;5.27;72.24;99274.19;5033994;28;20124;-85
2021/12/01 07:59:06;;;;;;;11.80;7.18;;;;;;;5.26;71.85;99269.13;5049103;28;20759;-85
2021/12/01 08:01:32;;;;;;;11.10;6.78;;;;;;;5.22;71.90;99258.16;5062567;28;20028;-85
2021/12/01 08:03:57;;;;;;;9.35;5.72;;;;;;;5.31;71.87;99272.13;5065826;28;20076;-85
2021/12/01 08:06:23;;;;;;;10.75;6.22;;;;;;;5.25;72.66;99248.31;5070709;28;20033;-85
2021/12/01 08:08:49;;;;;;;8.70;5.97;;;;;;;5.28;73.00;99261.97;5070469;28;20048;-85
2021/12/01 08:11:14;;;;;;;9.20;4.72;;;;;;;5.29;72.51;99266.31;5047046;28;20035;-85
2021/12/01 08:13:40;;;;;;;9.77;4.50;;;;;;;5.31;73.35;99266.63;5028497;28;20041;-84
2021/12/01 08:16:06;;;;;;;6.90;4.25;;;;;;;5.33;73.50;99264.25;5052662;28;20049;-91
2021/12/01 08:18:32;;;;;;;7.07;3.83;;;;;;;5.42;74.03;99267.22;5070534;28;20074;-92
2021/12/01 08:20:58;;;;;;;7.03;4.38;;;;;;;5.52;74.32;99259.97;5070868;28;20064;-93
2021/12/01 08:23:23;;;;;;;8.52;4.40;;;;;;;5.61;73.89;99263.72;5052066;28;20044;-93
2021/12/01 08:25:49;;;;;;;9.30;4.35;;;;;;;5.65;73.80;99263.66;5070850;28;20044;-94
2021/12/01 08:28:16;;;;;;;6.75;3.92;;;;;;;5.85;74.08;99258.94;5048979;28;20040;-94
2021/12/01 08:30:42;;;;;;;7.43;3.80;;;;;;;6.02;74.00;99262.56;5070339;28;20040;-93
2021/12/01 08:33:08;;;;;;;8.95;3.60;;;;;;;6.08;72.61;99269.13;5062320;28;20578;-92
2021/12/01 08:35:33;;;;;;;5.10;3.53;;;;;;;6.13;71.99;99254.84;5070756;28;20043;-93
2021/12/01 08:37:59;;;;;;;10.38;4.38;;;;;;;6.27;71.70;99238.00;5052510;28;20041;-93
2021/12/01 08:40:25;;;;;;;8.50;4.35;;;;;;;6.46;69.95;99228.94;5065959;28;20116;-93
2021/12/01 08:42:51;;;;;;;8.70;3.60;;;;;;;6.62;69.85;99241.19;5067567;28;20043;-94
2021/12/01 08:45:17;;;;;;;9.75;4.03;;;;;;;6.78;69.48;99249.44;5024679;28;20278;-93
2021/12/01 08:47:43;;;;;;;5.97;3.40;;;;;;;6.85;69.48;99244.53;5065740;28;20041;-93
2021/12/01 08:50:10;;;;;;;8.88;3.42;;;;;;;6.94;69.01;99246.69;5047305;28;20558;-93
2021/12/01 08:52:36;;;;;;;7.85;3.97;;;;;;;7.00;68.85;99267.00;5062083;28;20055;-93
2021/12/01 08:55:01;;;;;;;9.60;4.00;;;;;;;7.02;68.37;99259.09;5044165;28;20487;-95
2021/12/01 08:57:27;;;;;;;6.35;3.63;;;;;;;7.10;68.58;99254.19;5070470;28;20040;-93
2021/12/01 08:59:52;;;;;;;6.28;3.40;;;;;;;7.20;68.18;99262.16;5040384;28;20172;-92
2021/12/01 09:02:18;;;;;;;12.32;3.75;;;;;;;7.26;68.09;99263.22;5067302;28;20037;-93
2021/12/01 09:04:44;;;;;;;7.35;3.60;;;;;;;7.18;68.36;99248.06;5058637;28;20145;-93
2021/12/01 09:07:10;;;;;;;6.93;3.90;;;;;;;7.27;67.57;99253.75;5060907;28;20072;-94
2021/12/01 09:09:36;;;;;;;6.05;3.60;;;;;;;7.27;66.89;99247.44;5070094;28;20067;-94
2021/12/01 09:12:03;;;;;;;6.43;3.90;;;;;;;7.27;66.97;99245.47;5062007;28;20111;-92
2021/12/01 09:14:28;;;;;;;6.95;3.38;;;;;;;7.23;66.32;99236.50;5069885;28;20037;-86
2021/12/01 09:16:56;;;;;;;5.53;3.80;;;;;;;7.33;66.38;99246.47;5044261;28;20052;-85
2021/12/01 09:19:22;;;;;;;7.75;3.83;;;;;;;7.34;66.98;99244.50;5032409;28;20044;-85
2021/12/01 09:21:48;;;;;;;10.15;4.47;;;;;;;7.37;67.12;99236.13;5060830;28;20122;-85
2021/12/01 09:24:14;;;;;;;12.57;5.45;;;;;;;7.39;67.04;99233.72;5068794;28;20127;-85
2021/12/01 09:26:40;;;;;;;9.55;4.88;;;;;;;7.33;66.51;99232.69;5062043;28;20059;-86
2021/12/01 09:29:06;;;;;;;10.02;4.50;;;;;;;7.24;66.31;99218.72;5069470;28;20489;-94
2021/12/01 09:31:32;;;;;;;8.30;3.97;;;;;;;7.19;66.85;99208.25;5070684;28;20431;-93
2021/12/01 09:33:57;;;;;;;9.45;3.95;;;;;;;7.25;66.61;99228.56;5069837;28;20126;-95
2021/12/01 09:36:23;;;;;;;5.93;3.47;;;;;;;7.28;66.48;99233.19;5034448;28;20068;-93
2021/12/01 09:38:49;;;;;;;7.85;3.60;;;;;;;7.29;66.96;99237.50;5065181;28;20057;-93
2021/12/01 09:41:14;;;;;;;6.82;3.80;;;;;;;7.29;67.83;99243.03;5048726;28;20119;-94
2021/12/01 09:43:40;;;;;;;6.88;3.63;;;;;;;7.29;67.15;99217.44;5041198;28;20184;-93
2021/12/01 09:46:09;;;;;;;9.68;4.18;;;;;;;7.29;67.19;99218.19;5066178;28;20107;-93
2021/12/01 09:48:37;;;;;;;6.22;3.50;;;;;;;7.24;67.00;99212.47;5069665;28;20025;-93
2021/12/01 09:51:03;;;;;;;9.77;3.83;;;;;;;7.31;66.86;99207.53;5070490;28;20087;-85
2021/12/01 09:53:29;;;;;;;6.53;3.90;;;;;;;7.40;66.81;99215.19;5041605;28;20068;-85
2021/12/01 09:55:54;;;;;;;6.63;3.70;;;;;;;7.38;66.87;99226.63;5052090;28;20145;-85
2021/12/01 09:58:25;;;;;;;9.07;4.03;;;;;;;7.47;67.05;99237.06;5039158;28;20049;-85
2021/12/01 10:00:55;;;;;;;6.03;3.70;;;;;;;7.56;67.18;99233.66;5069793;28;20582;-85
2021/12/01 10:03:21;;;;;;;7.55;3.70;;;;;;;7.65;66.90;99226.28;5051538;28;20040;-85
2021/12/01 10:05:59;;;;;;;8.63;4.22;;;;;;;7.69;66.58;99213.16;5064982;28;20038;-85
2021/12/01 10:08:37;;;;;;;8.35;3.78;;;;;;;7.74;66.38;99218.16;5069133;28;20080;-93
2021/12/01 10:11:10;;;;;;;8.32;4.80;;;;;;;7.73;65.74;99185.44;5053467;28;20044;-85
2021/12/01 10:13:39;;;;;;;7.65;4.50;;;;;;;7.96;65.15;99201.75;5073104;28;20043;-86
2021/12/01 10:16:08;;;;;;;8.00;4.10;;;;;;;8.10;65.23;99182.00;5058940;28;20513;-85
2021/12/01 10:18:43;;;;;;;6.53;3.63;;;;;;;8.26;64.42;99181.88;5067274;28;20045;-86
2021/12/01 10:21:17;;;;;;;6.18;3.58;;;;;;;8.50;64.33;99179.56;5048961;28;20502;-85
2021/12/01 10:23:48;;;;;;;7.00;3.60;;;;;;;8.66;63.56;99167.63;5072387;28;20080;-86
2021/12/01 10:26:16;;;;;;;6.45;3.40;;;;;;;8.78;63.42;99164.84;5065083;28;20446;-93
2021/12/01 10:28:50;;;;;;;5.35;3.08;;;;;;;8.75;62.13;99153.91;5072717;28;20409;-94
2021/12/01 10:31:16;;;;;;;7.15;3.80;;;;;;;8.69;62.52;99145.41;5054823;28;20037;-93
2021/12/01 10:33:42;;;;;;;7.13;3.67;;;;;;;8.73;63.03;99140.53;5053232;28;20124;-94
2021/12/01 10:36:09;;;;;;;6.65;3.28;;;;;;;8.74;62.87;99141.28;5049940;28;20574;-94
2021/12/01 10:38:38;;;;;;;6.78;3.53;;;;;;;8.92;62.99;99135.16;5050177;28;20056;-93
2021/12/01 10:41:12;;;;;;;6.22;3.67;;;;;;;9.12;61.98;99117.06;5064925;28;20041;-93
2021/12/01 10:43:46;;;;;;;6.53;3.20;;;;;;;9.33;62.14;99121.06;5072235;28;20158;-94
2021/12/01 10:46:15;;;;;;;9.40;3.60;;;;;;;9.59;61.21;99116.91;5043321;28;20072;-93
2021/12/01 10:48:42;;;;;;;8.65;3.58;;;;;;;9.71;60.32;99106.97;5042214;28;20124;-94
2021/12/01 10:51:13;;;;;;;7.53;3.55;;;;;;;9.82;59.53;99108.13;5068009;28;20040;-95
2021/12/01 10:53:39;;;;;;;6.32;3.22;;;;;;;10.09;59.54;99112.22;5049552;28;20155;-93
2021/12/01 10:56:07;;;;;;;6.78;3.00;;;;;;;10.34;58.15;99103.75;5073190;28;20140;-94
2021/12/01 10:58:36;;;;;;;5.60;3.45;;;;;;;10.25;57.66;99118.34;5072542;28;20044;-95
2021/12/01 11:01:03;;;;;;;5.90;3.60;;;;;;;10.06;58.29;99105.63;5072491;28;20044;-94
2021/12/01 11:03:31;;;;;;;6.70;3.45;;;;;;;9.75;59.06;99108.38;5043764;28;20048;-93
2021/12/01 11:06:20;;;;;;;9.25;3.60;;;;;;;9.73;60.37;99113.63;5071241;28;20040;-94
2021/12/01 11:08:57;;;;;;;5.57;3.33;;;;;;;9.68;60.44;99105.13;5050698;28;20079;-85
2021/12/01 11:11:25;;;;;;;9.23;3.78;;;;;;;9.62;60.69;99102.19;5065666;28;20041;-86
2021/12/01 11:13:51;;;;;;;6.07;3.90;;;;;;;9.59;59.98;99111.38;5070449;28;20029;-86
2021/12/01 11:16:18;;;;;;;5.43;3.10;;;;;;;9.59;60.46;99094.75;5071343;28;20482;-85
2021/12/01 11:18:45;;;;;;;5.78;3.47;;;;;;;9.59;60.98;99091.22;5050006;28;20036;-86
2021/12/01 11:21:22;;;;;;;5.75;3.17;;;;;;;9.65;61.35;99072.81;5053268;28;20044;-85
2021/12/01 11:24:02;;;;;;;6.22;3.20;;;;;;;9.76;61.63;99070.38;5067670;28;20158;-93
2021/12/01 11:26:29;;;;;;;7.53;3.70;;;;;;;9.81;60.04;99067.81;5054309;28;20041;-85
2021/12/01 11:29:00;;;;;;;6.72;3.13;;;;;;;9.97;60.81;99061.25;5045599;28;20079;-85
2021/12/01 11:31:34;;;;;;;6.03;3.15;;;;;;;10.22;60.04;99058.28;5053463;28;20401;-85
2021/12/01 11:34:03;;;;;;;6.75;3.30;;;;;;;10.42;59.19;99055.09;5070842;28;20062;-86
2021/12/01 11:36:31;;;;;;;8.13;3.40;;;;;;;10.64;58.64;99055.72;5050393;28;20040;-85
2021/12/01 11:38:59;;;;;;;4.82;3.10;;;;;;;10.72;57.91;99056.19;5067318;28;20040;-85
2021/12/01 11:41:27;;;;;;;10.93;3.80;;;;;;;10.64;58.53;99032.75;5053494;28;20037;-86
2021/12/01 11:43:53;;;;;;;7.32;3.28;;;;;;;10.74;58.51;99026.00;5053868;28;20163;-86
2021/12/01 11:46:19;;;;;;;10.20;3.40;;;;;;;10.87;58.12;99026.63;5051923;28;20068;-86